Time;durP1;ratioP1;P1;durP2;ratioP2;P2;SDS_P1;SDS_P2;PMS_P1;PMS_P2;Temp;Humidity;BMP_temperature;BMP_pressure;BME280_temperature;BME280_humidity;BME280_pressure;Samples;Min_cycle;Max_cycle;Signal;HPM_P1;HPM_P2
2024/01/29 00:00:47;;;;;;;32.25;18.40;;;;;;;-2.66;nan;97233.50;2065555;28;20042;-61
2024/01/29 00:01:48;;;;;;;33.50;18.25;;;;;;;-2.71;nan;97240.16;2065140;28;20070;-61
2024/01/29 00:02:49;;;;;;;29.85;17.10;;;;;;;-2.85;nan;97227.13;2065521;28;20528;-60
2024/01/29 00:03:51;;;;;;;30.58;18.08;;;;;;;-2.86;nan;97245.75;2065219;28;20047;-61
2024/01/29 00:04:52;;;;;;;29.77;17.48;;;;;;;-2.89;nan;97249.06;2065762;28;20050;-60
2024/01/29 00:05:53;;;;;;;31.25;17.27;;;;;;;-2.86;nan;97245.75;2065217;28;20410;-61
2024/01/29 00:06:54;;;;;;;26.60;15.77;;;;;;;-2.79;nan;97251.84;2064914;28;20054;-61
2024/01/29 00:07:55;;;;;;;29.75;17.45;;;;;;;-2.74;nan;97252.81;2065251;28;20062;-61
2024/01/29 00:08:57;;;;;;;33.05;18.30;;;;;;;-2.72;nan;97249.47;2064721;28;20050;-61
2024/01/29 00:09:58;;;;;;;35.30;20.08;;;;;;;-2.82;nan;97252.63;2065576;28;20047;-61
2024/01/29 00:10:59;;;;;;;34.78;18.77;;;;;;;-2.92;nan;97253.19;2065399;28;20055;-61
2024/01/29 00:12:01;;;;;;;38.95;21.60;;;;;;;-3.02;nan;97251.25;2064759;28;20491;-61
2024/01/29 00:13:02;;;;;;;36.63;19.60;;;;;;;-3.12;nan;97253.56;2064908;28;20050;-61
2024/01/29 00:14:05;;;;;;;34.60;18.92;;;;;;;-3.16;nan;97255.97;2065380;28;20058;-61
2024/01/29 00:15:06;;;;;;;36.03;19.55;;;;;;;-3.26;nan;97249.81;2065587;28;20049;-61
2024/01/29 00:16:07;;;;;;;39.58;20.25;;;;;;;-3.29;nan;97259.00;2064930;28;20081;-61
2024/01/29 00:17:10;;;;;;;36.63;19.45;;;;;;;-3.35;nan;97252.94;2065067;28;20100;-61
2024/01/29 00:18:11;;;;;;;32.05;17.45;;;;;;;-3.34;nan;97259.75;2065626;28;20502;-61
2024/01/29 00:19:12;;;;;;;37.83;20.00;;;;;;;-3.31;nan;97256.44;2064845;28;20065;-61
2024/01/29 00:20:13;;;;;;;36.00;19.48;;;;;;;-3.29;nan;97264.09;2064980;28;20054;-61
2024/01/29 00:21:14;;;;;;;42.08;22.23;;;;;;;-3.11;nan;97264.56;2064867;28;20058;-61
2024/01/29 00:22:15;;;;;;;36.22;20.27;;;;;;;-3.04;nan;97263.06;2065400;28;20062;-61
2024/01/29 00:23:16;;;;;;;39.97;22.08;;;;;;;-3.21;nan;97258.38;2065168;28;20474;-61
2024/01/29 00:24:17;;;;;;;41.72;22.58;;;;;;;-3.30;nan;97260.69;2065164;28;20058;-60
2024/01/29 00:25:19;;;;;;;41.13;21.80;;;;;;;-3.28;nan;97255.66;2065327;28;20054;-60
2024/01/29 00:26:20;;;;;;;39.53;20.58;;;;;;;-3.28;nan;97256.50;2064842;28;20509;-61
2024/01/29 00:27:21;;;;;;;40.78;21.95;;;;;;;-3.33;nan;97253.00;2065436;28;20162;-61
2024/01/29 00:28:22;;;;;;;34.60;19.60;;;;;;;-3.22;nan;97246.50;2065597;28;20049;-61
2024/01/29 00:29:23;;;;;;;39.40;22.48;;;;;;;-3.16;nan;97241.56;2064861;28;20050;-61
2024/01/29 00:30:24;;;;;;;41.75;22.15;;;;;;;-3.16;nan;97248.34;2065409;28;20042;-61
2024/01/29 00:31:25;;;;;;;36.72;18.88;;;;;;;-3.05;nan;97244.41;2064735;28;20050;-61
2024/01/29 00:32:27;;;;;;;38.70;20.42;;;;;;;-3.01;nan;97246.22;2048642;29;20054;-61
2024/01/29 00:33:28;;;;;;;35.40;18.52;;;;;;;-2.96;nan;97244.66;2048854;28;20419;-61
2024/01/29 00:34:29;;;;;;;34.20;19.38;;;;;;;-2.92;nan;97238.81;2065175;28;20046;-61
2024/01/29 00:35:30;;;;;;;34.50;18.23;;;;;;;-2.84;nan;97246.63;2065410;28;20083;-61
2024/01/29 00:36:31;;;;;;;32.70;18.08;;;;;;;-2.81;nan;97244.16;2055933;28;20598;-61
2024/01/29 00:37:32;;;;;;;37.42;20.98;;;;;;;-2.76;nan;97242.59;2056822;28;20053;-61
2024/01/29 00:38:33;;;;;;;33.38;18.48;;;;;;;-2.70;nan;97246.97;2065432;28;20049;-61
2024/01/29 00:39:35;;;;;;;31.83;17.48;;;;;;;-2.65;nan;97247.94;2064588;28;20053;-61
2024/01/29 00:40:37;;;;;;;33.72;19.13;;;;;;;-2.68;nan;97253.81;2065481;28;20038;-61
2024/01/29 00:41:38;;;;;;;30.92;17.77;;;;;;;-2.60;nan;97251.44;2064598;28;20054;-61
2024/01/29 00:42:39;;;;;;;31.42;17.08;;;;;;;-2.59;nan;97254.84;2065862;28;20042;-61
2024/01/29 00:43:40;;;;;;;33.60;19.55;;;;;;;-2.65;nan;97250.47;2067185;28;20054;-62
2024/01/29 00:44:42;;;;;;;33.42;19.13;;;;;;;-2.66;nan;97257.25;2066694;28;20454;-60
2024/01/29 00:45:43;;;;;;;35.90;21.10;;;;;;;-2.66;nan;97259.78;2066302;28;20054;-61
2024/01/29 00:46:44;;;;;;;30.88;17.83;;;;;;;-2.66;nan;97253.84;2066612;28;20058;-61
2024/01/29 00:47:46;;;;;;;35.25;19.25;;;;;;;-2.73;nan;97257.91;2067106;28;20474;-61
2024/01/29 00:48:47;;;;;;;36.95;19.60;;;;;;;-2.86;nan;97255.91;2066868;28;20050;-61
2024/01/29 00:49:48;;;;;;;32.53;19.75;;;;;;;-2.90;nan;97254.09;2067108;28;20054;-61
2024/01/29 00:50:49;;;;;;;31.92;17.48;;;;;;;-2.82;nan;97256.84;2066912;28;20038;-61
2024/01/29 00:51:50;;;;;;;34.60;19.55;;;;;;;-2.82;nan;97244.13;2066702;28;20054;-60
2024/01/29 00:52:51;;;;;;;34.60;18.70;;;;;;;-2.83;nan;97248.38;2066127;28;20050;-61
2024/01/29 00:53:53;;;;;;;31.13;18.63;;;;;;;-2.93;nan;97252.34;2066947;28;20065;-61
2024/01/29 00:54:54;;;;;;;33.20;18.40;;;;;;;-2.89;nan;97246.53;2066924;28;20138;-61
2024/01/29 00:55:55;;;;;;;31.15;16.73;;;;;;;-2.80;nan;97250.13;2066920;28;20047;-61
2024/01/29 00:56:57;;;;;;;29.50;16.83;;;;;;;-2.72;nan;97253.72;2067039;28;20478;-61
2024/01/29 00:57:58;;;;;;;28.13;16.73;;;;;;;-2.67;nan;97250.47;2067071;28;20050;-61
2024/01/29 00:58:59;;;;;;;30.83;17.15;;;;;;;-2.62;nan;97247.16;2067036;28;20069;-61
2024/01/29 01:00:00;;;;;;;30.88;15.13;;;;;;;-2.58;nan;97254.03;2066307;28;20061;-61
2024/01/29 01:01:01;;;;;;;31.92;18.75;;;;;;;-2.53;nan;97250.78;2066221;28;20061;-61
2024/01/29 01:02:02;;;;;;;28.88;17.90;;;;;;;-2.50;nan;97253.41;2067000;28;20073;-61
2024/01/29 01:03:03;;;;;;;28.70;16.08;;;;;;;-2.52;nan;97246.56;2066874;28;20050;-61
2024/01/29 01:04:05;;;;;;;27.70;17.67;;;;;;;-2.57;nan;97253.22;2066323;28;20066;-61
2024/01/29 01:05:06;;;;;;;38.47;19.45;;;;;;;-2.69;nan;97257.19;2066912;28;20045;-61
2024/01/29 01:06:09;;;;;;;32.17;17.83;;;;;;;-2.78;nan;97258.63;2066106;28;20050;-61
2024/01/29 01:07:11;;;;;;;29.60;17.50;;;;;;;-2.79;nan;97257.78;2065898;28;20070;-61
2024/01/29 01:08:12;;;;;;;32.08;18.90;;;;;;;-2.81;nan;97253.47;2066889;28;20690;-61
2024/01/29 01:09:14;;;;;;;32.33;17.42;;;;;;;-2.80;nan;97247.59;2066787;28;20122;-61
2024/01/29 01:10:15;;;;;;;31.60;17.77;;;;;;;-2.75;nan;97244.31;2066669;28;20057;-61
2024/01/29 01:11:16;;;;;;;29.65;17.73;;;;;;;-2.70;nan;97244.41;2066156;28;20054;-60
2024/01/29 01:12:17;;;;;;;30.02;16.83;;;;;;;-2.69;nan;97241.94;2066525;28;20466;-61
2024/01/29 01:13:18;;;;;;;30.85;17.33;;;;;;;-2.61;nan;97242.13;2066556;28;20057;-61
2024/01/29 01:14:19;;;;;;;28.85;17.10;;;;;;;-2.63;nan;97236.13;2066673;28;20398;-61
2024/01/29 01:15:20;;;;;;;29.20;16.48;;;;;;;-2.60;nan;97248.91;2066765;28;20045;-61
2024/01/29 01:16:22;;;;;;;31.15;17.00;;;;;;;-2.61;nan;97247.19;2058058;28;20062;-61
2024/01/29 01:17:23;;;;;;;29.83;16.33;;;;;;;-2.58;nan;97244.72;2058134;28;20464;-61
2024/01/29 01:18:24;;;;;;;29.45;16.45;;;;;;;-2.64;nan;97246.28;2065829;28;20058;-61
2024/01/29 01:19:25;;;;;;;25.60;15.82;;;;;;;-2.72;nan;97248.63;2066313;28;20483;-61
2024/01/29 01:20:26;;;;;;;23.73;14.93;;;;;;;-2.70;nan;97246.97;2066576;28;20038;-61
2024/01/29 01:21:27;;;;;;;23.70;13.20;;;;;;;-2.67;nan;97247.91;2066651;28;20034;-61
2024/01/29 01:22:28;;;;;;;25.25;13.82;;;;;;;-2.68;nan;97245.31;2066116;28;20062;-61
2024/01/29 01:23:29;;;;;;;21.58;12.52;;;;;;;-2.66;nan;97249.63;2066292;28;20062;-61
2024/01/29 01:24:30;;;;;;;23.92;15.40;;;;;;;-2.62;nan;97247.16;2066830;28;20042;-61
2024/01/29 01:25:31;;;;;;;24.45;13.88;;;;;;;-2.62;nan;97245.50;2066197;28;20054;-61
2024/01/29 01:26:33;;;;;;;23.02;12.88;;;;;;;-2.59;nan;97244.69;2066689;28;20083;-60
2024/01/29 01:27:34;;;;;;;23.42;13.90;;;;;;;-2.55;nan;97243.94;2066801;28;20038;-61
2024/01/29 01:28:35;;;;;;;21.45;12.50;;;;;;;-2.55;nan;97249.03;2066765;28;20505;-61
2024/01/29 01:29:36;;;;;;;23.98;14.93;;;;;;;-2.62;nan;97249.69;2067134;28;20053;-61
2024/01/29 01:30:37;;;;;;;25.30;14.65;;;;;;;-2.65;nan;97242.84;2066660;28;20057;-61
2024/01/29 01:31:38;;;;;;;24.75;13.65;;;;;;;-2.66;nan;97246.22;2058050;28;20042;-61
2024/01/29 01:32:39;;;;;;;22.42;13.40;;;;;;;-2.67;nan;97244.53;2057996;28;20038;-61
2024/01/29 01:33:40;;;;;;;23.08;13.25;;;;;;;-2.68;nan;97247.88;2066298;28;20492;-61
2024/01/29 01:34:42;;;;;;;24.00;13.77;;;;;;;-2.75;nan;97239.25;2066699;28;20046;-61
2024/01/29 01:35:43;;;;;;;22.17;12.48;;;;;;;-2.75;nan;97246.88;2066850;28;20118;-61
2024/01/29 01:36:44;;;;;;;20.60;12.27;;;;;;;-2.72;nan;97241.84;2066198;28;20054;-61
2024/01/29 01:37:45;;;;;;;24.77;12.52;;;;;;;-2.69;nan;97233.44;2066512;28;20405;-61
2024/01/29 01:38:46;;;;;;;23.35;13.98;;;;;;;-2.75;nan;97234.16;2065987;28;20057;-61
2024/01/29 01:39:52;;;;;;;25.75;14.35;;;;;;;-2.78;nan;97238.28;2066270;28;20061;-61
2024/01/29 01:40:53;;;;;;;25.60;14.73;;;;;;;-2.82;nan;97232.28;2066656;28;20379;-61
2024/01/29 01:41:54;;;;;;;27.20;14.15;;;;;;;-2.95;nan;97228.56;2066522;28;20058;-61
2024/01/29 01:42:55;;;;;;;23.88;13.07;;;;;;;-2.98;nan;97237.81;2065799;28;20065;-61
2024/01/29 01:43:57;;;;;;;27.40;15.40;;;;;;;-3.01;nan;97236.03;2066789;28;20042;-61
2024/01/29 01:44:58;;;;;;;27.95;14.02;;;;;;;-3.06;nan;97239.28;2065357;28;20057;-61
2024/01/29 01:46:05;;;;;;;29.02;15.05;;;;;;;-3.05;nan;97235.91;2066544;28;20061;-66
2024/01/29 01:47:06;;;;;;;27.48;14.65;;;;;;;-3.11;nan;97232.41;2066579;28;20485;-61
2024/01/29 01:48:07;;;;;;;24.17;13.13;;;;;;;-3.07;nan;97240.09;2066433;28;20054;-61
2024/01/29 01:49:08;;;;;;;24.10;14.30;;;;;;;-3.07;nan;97230.81;2066256;28;20064;-61
2024/01/29 01:50:09;;;;;;;23.05;13.93;;;;;;;-3.09;nan;97232.44;2066449;28;20065;-61
2024/01/29 01:51:10;;;;;;;23.10;14.00;;;;;;;-3.09;nan;97231.59;2066210;28;20057;-61
2024/01/29 01:52:12;;;;;;;25.75;15.02;;;;;;;-3.13;nan;97241.69;2066711;28;20052;-61
2024/01/29 01:53:13;;;;;;;26.05;15.10;;;;;;;-3.24;nan;97237.13;2065686;28;20054;-61
2024/01/29 01:54:14;;;;;;;24.52;14.23;;;;;;;-3.24;nan;97226.97;2066611;28;20046;-61
2024/01/29 01:55:15;;;;;;;23.25;13.20;;;;;;;-3.17;nan;97241.56;2050078;28;20047;-61
2024/01/29 01:56:16;;;;;;;21.65;13.35;;;;;;;-3.16;nan;97241.56;2049525;28;20435;-61
2024/01/29 01:57:17;;;;;;;24.63;14.75;;;;;;;-3.19;nan;97240.66;2066412;28;20045;-61
2024/01/29 01:58:18;;;;;;;23.83;14.23;;;;;;;-3.20;nan;97238.94;2066413;28;20038;-61
2024/01/29 01:59:20;;;;;;;21.80;13.50;;;;;;;-3.20;nan;97236.41;2066348;28;20049;-60
2024/01/29 02:00:21;;;;;;;25.20;14.35;;;;;;;-3.20;nan;97228.78;2066623;28;20050;-61
2024/01/29 02:01:22;;;;;;;21.85;12.20;;;;;;;-3.22;nan;97228.72;2066315;28;20042;-61
2024/01/29 02:02:23;;;;;;;23.23;13.98;;;;;;;-3.13;nan;97235.72;2065790;28;20050;-61
2024/01/29 02:03:25;;;;;;;24.52;13.52;;;;;;;-3.14;nan;97231.47;2057885;28;20410;-61
2024/01/29 02:04:26;;;;;;;22.35;14.15;;;;;;;-3.17;nan;97232.25;2057602;28;20047;-61
2024/01/29 02:05:27;;;;;;;26.15;12.88;;;;;;;-3.16;nan;97230.56;2066579;28;20046;-61
2024/01/29 02:06:28;;;;;;;22.83;14.48;;;;;;;-3.20;nan;97229.63;2066371;28;20390;-61
2024/01/29 02:07:29;;;;;;;21.52;13.05;;;;;;;-3.18;nan;97228.00;2065795;28;20046;-61
2024/01/29 02:08:31;;;;;;;23.27;14.00;;;;;;;-3.15;nan;97232.28;2066411;28;20038;-61
2024/01/29 02:09:32;;;;;;;23.13;12.93;;;;;;;-3.16;nan;97231.41;2057414;28;20519;-61
2024/01/29 02:10:33;;;;;;;28.48;14.40;;;;;;;-3.19;nan;97233.03;2041780;29;20043;-61
2024/01/29 02:11:34;;;;;;;24.05;14.05;;;;;;;-3.24;nan;97232.91;2049293;29;20050;-61
2024/01/29 02:12:35;;;;;;;23.85;13.45;;;;;;;-3.26;nan;97233.66;2066177;28;20498;-61
2024/01/29 02:13:36;;;;;;;24.00;13.30;;;;;;;-3.29;nan;97233.59;2066362;28;20057;-61
2024/01/29 02:14:37;;;;;;;22.05;13.68;;;;;;;-3.31;nan;97241.19;2066227;28;20050;-60
2024/01/29 02:15:39;;;;;;;22.95;14.38;;;;;;;-3.38;nan;97232.53;2066311;28;20046;-61
2024/01/29 02:16:40;;;;;;;28.00;13.55;;;;;;;-3.42;nan;97237.47;2066272;28;20039;-61
2024/01/29 02:17:41;;;;;;;24.13;15.23;;;;;;;-3.43;nan;97233.22;2066301;28;20050;-61
2024/01/29 02:18:43;;;;;;;25.40;15.55;;;;;;;-3.48;nan;97234.78;2065821;28;20046;-61
2024/01/29 02:19:44;;;;;;;27.92;15.40;;;;;;;-3.58;nan;97237.09;2066295;28;20046;-60
2024/01/29 02:20:45;;;;;;;28.55;16.48;;;;;;;-3.65;nan;97236.88;2065525;28;20042;-61
2024/01/29 02:21:46;;;;;;;27.55;15.10;;;;;;;-3.74;nan;97237.47;2066097;28;20054;-61
2024/01/29 02:22:47;;;;;;;26.63;15.05;;;;;;;-3.80;nan;97245.75;2066346;28;20486;-61
2024/01/29 02:23:49;;;;;;;26.55;14.95;;;;;;;-3.84;nan;97235.50;2065856;28;20069;-61
2024/01/29 02:24:50;;;;;;;28.67;16.65;;;;;;;-3.84;nan;97232.94;2066368;28;20509;-61
2024/01/29 02:25:51;;;;;;;28.48;16.67;;;;;;;-3.84;nan;97235.50;2066373;28;20046;-61
2024/01/29 02:26:52;;;;;;;29.52;15.85;;;;;;;-3.85;nan;97237.19;2065983;28;20154;-61
2024/01/29 02:27:53;;;;;;;34.63;18.02;;;;;;;-3.79;nan;97239.03;2065771;28;20066;-61
2024/01/29 02:28:54;;;;;;;33.65;18.38;;;;;;;-3.79;nan;97233.94;2065659;28;20050;-61
2024/01/29 02:29:55;;;;;;;32.72;19.15;;;;;;;-3.77;nan;97238.25;2065810;28;20061;-60
2024/01/29 02:30:56;;;;;;;33.13;18.35;;;;;;;-3.78;nan;97238.19;2065632;28;20061;-60
2024/01/29 02:31:57;;;;;;;33.83;19.30;;;;;;;-3.81;nan;97243.19;2066180;28;20497;-61
2024/01/29 02:32:58;;;;;;;37.45;19.73;;;;;;;-3.84;nan;97241.41;2065234;28;20061;-62
2024/01/29 02:34:00;;;;;;;36.45;19.95;;;;;;;-3.85;nan;97238.81;2066273;28;20053;-61
2024/01/29 02:35:01;;;;;;;36.38;21.25;;;;;;;-3.85;nan;97241.38;2066140;28;20053;-61
2024/01/29 02:36:02;;;;;;;38.85;21.58;;;;;;;-3.82;nan;97237.25;2065512;28;20059;-61
2024/01/29 02:37:03;;;;;;;35.83;21.80;;;;;;;-3.84;nan;97236.34;2065232;28;20062;-60
2024/01/29 02:38:04;;;;;;;35.90;21.67;;;;;;;-3.81;nan;97236.44;2066132;28;20046;-65
2024/01/29 02:39:07;;;;;;;41.50;22.67;;;;;;;-3.80;nan;97240.66;2066047;28;20057;-61
2024/01/29 02:40:09;;;;;;;36.05;21.30;;;;;;;-3.80;nan;97233.06;2065982;28;20053;-61
2024/01/29 02:41:10;;;;;;;42.35;22.75;;;;;;;-3.71;nan;97239.25;2064865;28;20490;-61
2024/01/29 02:42:11;;;;;;;35.33;21.13;;;;;;;-3.64;nan;97241.13;2066185;28;20038;-61
2024/01/29 02:43:12;;;;;;;41.92;22.20;;;;;;;-3.73;nan;97239.19;2066171;28;20054;-61
2024/01/29 02:44:13;;;;;;;43.15;23.58;;;;;;;-3.80;nan;97243.22;2065424;28;20077;-61
2024/01/29 02:45:14;;;;;;;37.13;22.13;;;;;;;-3.77;nan;97245.88;2065481;28;20066;-63
2024/01/29 02:46:18;;;;;;;41.88;24.30;;;;;;;-3.74;nan;97241.66;2066279;28;20046;-61
2024/01/29 02:47:19;;;;;;;46.47;25.98;;;;;;;-3.78;nan;97243.28;2066054;28;20046;-61
2024/01/29 02:48:20;;;;;;;37.83;22.40;;;;;;;-3.84;nan;97248.19;2065988;28;20402;-61
2024/01/29 02:49:21;;;;;;;43.53;26.02;;;;;;;-3.92;nan;97235.25;2065774;28;20058;-61
2024/01/29 02:50:29;;;;;;;50.17;28.58;;;;;;;-3.91;nan;97244.59;2065831;28;20050;-61
2024/01/29 02:51:30;;;;;;;44.42;24.10;;;;;;;-3.97;nan;97239.34;2065537;28;20420;-61
2024/01/29 02:52:31;;;;;;;41.97;24.02;;;;;;;-4.06;nan;97246.69;2065508;28;20058;-61
2024/01/29 02:53:32;;;;;;;41.50;22.88;;;;;;;-4.09;nan;97244.03;2066185;28;20058;-62
2024/01/29 02:54:33;;;;;;;45.20;24.25;;;;;;;-4.07;nan;97238.19;2066036;28;20391;-61
2024/01/29 02:55:34;;;;;;;36.95;21.05;;;;;;;-3.96;nan;97238.50;2066099;28;20046;-62
2024/01/29 02:56:36;;;;;;;35.92;21.88;;;;;;;-3.84;nan;97238.03;2066154;28;20050;-61
2024/01/29 02:57:37;;;;;;;39.13;22.88;;;;;;;-3.73;nan;97235.78;2066038;28;20374;-59
2024/01/29 02:58:38;;;;;;;38.60;22.80;;;;;;;-3.73;nan;97239.19;2066277;28;20046;-61
2024/01/29 02:59:39;;;;;;;35.35;22.50;;;;;;;-3.86;nan;97237.97;2066030;28;20049;-61
2024/01/29 03:00:40;;;;;;;37.92;21.75;;;;;;;-3.99;nan;97235.91;2066271;28;20513;-61
2024/01/29 03:01:41;;;;;;;33.00;19.92;;;;;;;-4.06;nan;97232.34;2065026;28;20065;-61
2024/01/29 03:02:42;;;;;;;33.33;21.00;;;;;;;-3.89;nan;97229.41;2066239;28;20056;-61
2024/01/29 03:03:43;;;;;;;38.40;21.85;;;;;;;-3.75;nan;97239.97;2065559;28;20498;-61
2024/01/29 03:04:44;;;;;;;35.28;22.30;;;;;;;-3.67;nan;97234.28;2065350;28;20065;-61
2024/01/29 03:05:45;;;;;;;39.25;22.75;;;;;;;-3.75;nan;97232.34;2065978;28;20081;-61
2024/01/29 03:06:47;;;;;;;43.05;22.35;;;;;;;-3.87;nan;97227.78;2066205;28;20387;-60
2024/01/29 03:07:48;;;;;;;35.22;20.92;;;;;;;-3.92;nan;97230.19;2066057;28;20046;-62
2024/01/29 03:08:49;;;;;;;41.13;22.98;;;;;;;-3.86;nan;97234.56;2066140;28;20050;-61
2024/01/29 03:09:50;;;;;;;37.28;20.25;;;;;;;-3.93;nan;97230.13;2065659;28;20054;-61
2024/01/29 03:10:51;;;;;;;39.38;19.58;;;;;;;-3.95;nan;97225.03;2066133;28;20049;-59
2024/01/29 03:11:52;;;;;;;37.72;21.30;;;;;;;-4.03;nan;97229.88;2066180;28;20053;-59
2024/01/29 03:12:54;;;;;;;36.35;20.48;;;;;;;-4.09;nan;97231.34;2067156;28;20061;-63
2024/01/29 03:13:55;;;;;;;39.33;20.63;;;;;;;-4.15;nan;97215.97;2066857;28;20046;-60
2024/01/29 03:14:57;;;;;;;36.60;21.50;;;;;;;-4.04;nan;97220.53;2067261;28;20076;-60
2024/01/29 03:15:58;;;;;;;39.38;23.27;;;;;;;-3.83;nan;97221.97;2067661;28;20482;-59
2024/01/29 03:16:59;;;;;;;39.97;22.52;;;;;;;-3.75;nan;97220.50;2066810;28;20062;-65
2024/01/29 03:18:00;;;;;;;38.78;20.98;;;;;;;-3.80;nan;97211.91;2067570;28;20053;-62
2024/01/29 03:19:01;;;;;;;39.42;21.70;;;;;;;-3.71;nan;97224.00;2066363;28;20058;-62
2024/01/29 03:20:03;;;;;;;36.30;22.00;;;;;;;-3.72;nan;97223.13;2066739;28;20054;-63
2024/01/29 03:21:04;;;;;;;40.47;21.83;;;;;;;-3.78;nan;97221.28;2058048;28;20054;-61
2024/01/29 03:22:06;;;;;;;37.75;20.17;;;;;;;-3.67;nan;97223.25;2058202;28;20482;-65
2024/01/29 03:23:07;;;;;;;31.92;19.83;;;;;;;-3.67;nan;97223.25;2067022;28;20058;-63
2024/01/29 03:24:08;;;;;;;36.67;20.25;;;;;;;-3.79;nan;97226.34;2068045;28;20046;-61
2024/01/29 03:25:09;;;;;;;33.45;19.63;;;;;;;-3.81;nan;97223.75;2066657;28;20057;-61
2024/01/29 03:26:10;;;;;;;38.17;20.20;;;;;;;-3.80;nan;97229.66;2067184;28;20482;-63
2024/01/29 03:27:11;;;;;;;36.55;20.42;;;;;;;-3.81;nan;97221.19;2067378;28;20054;-61
2024/01/29 03:28:12;;;;;;;34.30;20.67;;;;;;;-3.92;nan;97225.13;2067235;28;20046;-63
2024/01/29 03:29:13;;;;;;;33.00;19.80;;;;;;;-4.01;nan;97225.72;2067712;28;20042;-61
2024/01/29 03:30:15;;;;;;;42.22;22.02;;;;;;;-4.06;nan;97232.34;2067136;28;20050;-62
2024/01/29 03:31:16;;;;;;;34.78;20.35;;;;;;;-4.08;nan;97228.88;2067656;28;20402;-60
2024/01/29 03:32:17;;;;;;;37.47;20.33;;;;;;;-3.99;nan;97226.59;2067691;28;20046;-83
2024/01/29 03:33:18;;;;;;;35.63;21.40;;;;;;;-3.89;nan;97224.34;2066139;28;20042;-61
2024/01/29 03:34:19;;;;;;;38.53;22.08;;;;;;;-4.02;nan;97230.72;2065883;28;20471;-61
2024/01/29 03:35:20;;;;;;;38.70;21.65;;;;;;;-4.04;nan;97224.75;2065360;28;20046;-61
2024/01/29 03:36:21;;;;;;;40.10;21.63;;;;;;;-4.08;nan;97222.94;2065988;28;20042;-61
2024/01/29 03:37:22;;;;;;;42.13;22.55;;;;;;;-4.09;nan;97221.22;2065287;28;20730;-61
2024/01/29 03:38:23;;;;;;;35.47;21.13;;;;;;;-4.10;nan;97216.97;2065801;28;20042;-62
2024/01/29 03:39:24;;;;;;;42.97;22.23;;;;;;;-4.12;nan;97221.13;2066028;28;20050;-62
2024/01/29 03:40:26;;;;;;;38.25;22.35;;;;;;;-4.15;nan;97219.34;2065966;28;20054;-62
2024/01/29 03:41:27;;;;;;;44.75;22.13;;;;;;;-4.14;nan;97220.22;2065700;28;20042;-61
2024/01/29 03:42:28;;;;;;;39.55;20.88;;;;;;;-4.12;nan;97221.13;2065335;28;20062;-61
2024/01/29 03:43:29;;;;;;;37.97;20.75;;;;;;;-4.25;nan;97224.97;2065702;28;20045;-60
2024/01/29 03:44:30;;;;;;;41.25;22.40;;;;;;;-4.29;nan;97218.09;2064784;28;20038;-61
2024/01/29 03:45:31;;;;;;;37.78;22.35;;;;;;;-4.27;nan;97217.34;2065655;28;20467;-61
2024/01/29 03:46:32;;;;;;;36.63;21.95;;;;;;;-4.27;nan;97221.53;2065445;28;20046;-62
2024/01/29 03:47:33;;;;;;;38.58;22.92;;;;;;;-4.24;nan;97217.41;2065859;28;20042;-61
2024/01/29 03:48:35;;;;;;;37.83;21.55;;;;;;;-4.32;nan;97218.88;2065760;28;20045;-62
2024/01/29 03:49:36;;;;;;;40.83;22.85;;;;;;;-4.28;nan;97214.72;2065800;28;20387;-62
2024/01/29 03:50:37;;;;;;;42.92;22.45;;;;;;;-4.21;nan;97206.50;2065700;28;20050;-62
2024/01/29 03:51:38;;;;;;;44.35;23.13;;;;;;;-4.07;nan;97207.75;2065829;28;20046;-61
2024/01/29 03:52:39;;;;;;;38.97;21.65;;;;;;;-3.97;nan;97213.97;2065764;28;20485;-62
2024/01/29 03:53:40;;;;;;;36.25;20.88;;;;;;;-3.96;nan;97208.06;2065677;28;20061;-59
2024/01/29 03:54:41;;;;;;;38.90;21.05;;;;;;;-3.95;nan;97208.94;2064748;28;20061;-62
2024/01/29 03:55:42;;;;;;;36.92;22.27;;;;;;;-3.97;nan;97200.44;2065527;28;20034;-59
2024/01/29 03:56:43;;;;;;;40.38;20.50;;;;;;;-3.94;nan;97196.28;2064838;28;20067;-59
2024/01/29 03:57:45;;;;;;;34.35;18.80;;;;;;;-3.92;nan;97204.81;2065229;28;20061;-62
2024/01/29 03:58:46;;;;;;;40.40;21.77;;;;;;;-3.91;nan;97209.06;2065511;28;20475;-59
2024/01/29 03:59:47;;;;;;;42.05;21.83;;;;;;;-3.89;nan;97215.03;2065791;28;20050;-59
2024/01/29 04:00:48;;;;;;;44.40;22.60;;;;;;;-3.88;nan;97211.69;2065461;28;20038;-59
2024/01/29 04:01:49;;;;;;;38.80;21.90;;;;;;;-3.85;nan;97206.72;2065605;28;20051;-61
2024/01/29 04:02:50;;;;;;;36.28;21.38;;;;;;;-3.87;nan;97212.56;2065025;28;20105;-61
2024/01/29 04:03:51;;;;;;;37.10;21.17;;;;;;;-3.87;nan;97213.41;2065605;28;20508;-59
2024/01/29 04:04:52;;;;;;;35.47;19.92;;;;;;;-3.83;nan;97205.06;2065089;28;20061;-59
2024/01/29 04:05:54;;;;;;;32.65;18.95;;;;;;;-3.79;nan;97211.09;2065329;28;20097;-59
2024/01/29 04:06:55;;;;;;;35.58;20.58;;;;;;;-3.73;nan;97212.94;2065581;28;20501;-62
2024/01/29 04:07:56;;;;;;;37.05;20.92;;;;;;;-3.75;nan;97215.44;2065608;28;20057;-59
2024/01/29 04:08:57;;;;;;;35.33;20.90;;;;;;;-3.76;nan;97211.19;2065289;28;20081;-62
2024/01/29 04:09:58;;;;;;;35.33;19.40;;;;;;;-3.80;nan;97215.28;2065602;28;20046;-59
2024/01/29 04:10:59;;;;;;;32.28;19.42;;;;;;;-3.86;nan;97209.19;2065079;28;20061;-62
2024/01/29 04:12:00;;;;;;;34.83;20.15;;;;;;;-3.96;nan;97208.06;2064711;28;20499;-59
2024/01/29 04:13:01;;;;;;;32.67;19.52;;;;;;;-4.06;nan;97214.56;2065357;28;20053;-59
2024/01/29 04:14:03;;;;;;;35.65;20.05;;;;;;;-4.14;nan;97208.41;2065459;28;20049;-61
2024/01/29 04:15:04;;;;;;;32.40;20.02;;;;;;;-4.16;nan;97207.50;2065018;28;20058;-59
2024/01/29 04:16:09;;;;;;;32.38;19.88;;;;;;;-4.22;nan;97218.34;2064445;28;20061;-60
2024/01/29 04:17:12;;;;;;;29.52;17.90;;;;;;;-4.31;nan;97212.09;2058029;28;20058;-62
2024/01/29 04:18:13;;;;;;;34.50;19.55;;;;;;;-4.29;nan;97207.94;2058633;28;20062;-60
2024/01/29 04:19:14;;;;;;;32.47;19.50;;;;;;;-4.23;nan;97205.59;2067464;28;20464;-59
2024/01/29 04:20:15;;;;;;;36.75;19.98;;;;;;;-4.21;nan;97214.97;2067067;28;20065;-60
2024/01/29 04:21:16;;;;;;;32.50;19.02;;;;;;;-4.30;nan;97217.25;2067141;28;20399;-59
2024/01/29 04:22:17;;;;;;;33.13;19.05;;;;;;;-4.40;nan;97215.25;2066907;28;20054;-62
2024/01/29 04:23:19;;;;;;;31.92;18.20;;;;;;;-4.40;nan;97215.25;2067112;28;20046;-59
2024/01/29 04:24:20;;;;;;;36.10;18.02;;;;;;;-4.30;nan;97219.78;2067309;28;20430;-60
2024/01/29 04:25:21;;;;;;;32.00;19.02;;;;;;;-4.22;nan;97212.41;2067139;28;20053;-60
2024/01/29 04:26:22;;;;;;;33.38;19.73;;;;;;;-4.18;nan;97215.88;2067295;28;20049;-60
2024/01/29 04:27:23;;;;;;;31.83;18.75;;;;;;;-4.35;nan;97216.25;2066417;28;20057;-60
2024/01/29 04:28:24;;;;;;;30.73;17.25;;;;;;;-4.41;nan;97221.13;2067171;28;20057;-59
2024/01/29 04:29:25;;;;;;;35.08;19.10;;;;;;;-4.46;nan;97215.06;2066799;28;20073;-60
2024/01/29 04:30:26;;;;;;;29.60;18.67;;;;;;;-4.48;nan;97216.69;2067293;28;20050;-60
2024/01/29 04:31:27;;;;;;;31.52;19.30;;;;;;;-4.50;nan;97211.56;2066472;28;20058;-60
2024/01/29 04:32:29;;;;;;;30.48;18.20;;;;;;;-4.50;nan;97214.09;2066960;28;20402;-60
2024/01/29 04:33:30;;;;;;;34.70;18.60;;;;;;;-4.45;nan;97212.56;2066580;28;20058;-60
2024/01/29 04:34:31;;;;;;;32.90;17.38;;;;;;;-4.37;nan;97220.41;2067259;28;20081;-60
2024/01/29 04:35:32;;;;;;;32.00;19.02;;;;;;;-4.32;nan;97215.47;2066475;28;20069;-60
2024/01/29 04:36:33;;;;;;;35.17;18.88;;;;;;;-4.29;nan;97221.50;2067245;28;20042;-60
2024/01/29 04:37:34;;;;;;;31.83;18.65;;;;;;;-4.32;nan;97220.53;2067137;28;20502;-60
2024/01/29 04:38:35;;;;;;;30.20;17.23;;;;;;;-4.38;nan;97218.69;2067002;28;20058;-60
2024/01/29 04:39:40;;;;;;;33.53;18.00;;;;;;;-4.49;nan;97215.81;2066395;28;20062;-60
2024/01/29 04:40:42;;;;;;;32.38;18.13;;;;;;;-4.57;nan;97226.53;2067009;28;20054;-60
2024/01/29 04:41:43;;;;;;;29.95;17.13;;;;;;;-4.62;nan;97225.50;2066341;28;20510;-60
2024/01/29 04:42:44;;;;;;;31.48;17.90;;;;;;;-4.66;nan;97220.34;2066960;28;20062;-60
2024/01/29 04:43:45;;;;;;;30.02;18.33;;;;;;;-4.71;nan;97226.94;2066939;28;20046;-60
2024/01/29 04:44:46;;;;;;;30.15;18.77;;;;;;;-4.64;nan;97219.56;2066210;28;20054;-60
2024/01/29 04:45:47;;;;;;;30.30;16.63;;;;;;;-4.64;nan;97225.47;2058305;28;20487;-60
2024/01/29 04:46:49;;;;;;;31.02;18.10;;;;;;;-4.57;nan;97217.25;2058384;28;20138;-60
2024/01/29 04:47:50;;;;;;;29.63;17.58;;;;;;;-4.47;nan;97218.38;2067083;28;20399;-60
2024/01/29 04:48:51;;;;;;;34.25;19.10;;;;;;;-4.48;nan;97211.59;2067186;28;20053;-60